sensor_id;sensor_type;location;lat;lon;timestamp;temperature;humidity
5278;DHT22;2662;51.194;6.614;2023-07-29T00:02:12;20.10;99.90
5278;DHT22;2662;51.194;6.614;2023-07-29T00:04:38;20.10;99.90
5278;DHT22;2662;51.194;6.614;2023-07-29T00:07:05;20.10;99.90
5278;DHT22;2662;51.194;6.614;2023-07-29T00:09:33;20.10;99.90
5278;DHT22;2662;51.194;6.614;2023-07-29T00:12:00;20.10;99.90
5278;DHT22;2662;51.194;6.614;2023-07-29T00:14:27;20.10;99.90
5278;DHT22;2662;51.194;6.614;2023-07-29T00:16:53;20.00;99.90
5278;DHT22;2662;51.194;6.614;2023-07-29T00:19:20;20.00;99.90
5278;DHT22;2662;51.194;6.614;2023-07-29T00:21:48;20.00;99.90
5278;DHT22;2662;51.194;6.614;2023-07-29T00:24:15;20.00;99.90
5278;DHT22;2662;51.194;6.614;2023-07-29T00:26:43;20.00;99.90
5278;DHT22;2662;51.194;6.614;2023-07-29T00:29:10;20.00;99.90
5278;DHT22;2662;51.194;6.614;2023-07-29T00:31:37;20.00;99.90
5278;DHT22;2662;51.194;6.614;2023-07-29T00:34:03;20.00;99.90
5278;DHT22;2662;51.194;6.614;2023-07-29T00:36:30;20.00;99.90
5278;DHT22;2662;51.194;6.614;2023-07-29T00:38:57;20.00;99.90
5278;DHT22;2662;51.194;6.614;2023-07-29T00:41:25;19.90;99.90
5278;DHT22;2662;51.194;6.614;2023-07-29T00:43:53;20.00;99.90
5278;DHT22;2662;51.194;6.614;2023-07-29T00:46:20;19.90;99.90
5278;DHT22;2662;51.194;6.614;2023-07-29T00:48:47;19.90;99.90
5278;DHT22;2662;51.194;6.614;2023-07-29T00:51:14;19.90;99.90
5278;DHT22;2662;51.194;6.614;2023-07-29T00:53:41;19.90;99.90
5278;DHT22;2662;51.194;6.614;2023-07-29T00:56:07;20.00;99.90
5278;DHT22;2662;51.194;6.614;2023-07-29T00:58:34;20.00;99.90
5278;DHT22;2662;51.194;6.614;2023-07-29T01:01:02;20.10;99.90
5278;DHT22;2662;51.194;6.614;2023-07-29T01:03:29;20.10;99.90
5278;DHT22;2662;51.194;6.614;2023-07-29T01:06:06;20.10;99.90
5278;DHT22;2662;51.194;6.614;2023-07-29T01:08:41;20.20;99.90
5278;DHT22;2662;51.194;6.614;2023-07-29T01:11:21;20.20;99.90
5278;DHT22;2662;51.194;6.614;2023-07-29T01:13:53;20.30;99.90
5278;DHT22;2662;51.194;6.614;2023-07-29T01:16:28;20.20;99.90
5278;DHT22;2662;51.194;6.614;2023-07-29T01:18:57;20.20;99.90
5278;DHT22;2662;51.194;6.614;2023-07-29T01:21:27;20.30;99.90
5278;DHT22;2662;51.194;6.614;2023-07-29T01:23:59;20.20;99.90
5278;DHT22;2662;51.194;6.614;2023-07-29T01:26:26;20.20;99.90
5278;DHT22;2662;51.194;6.614;2023-07-29T01:28:54;20.30;99.90
5278;DHT22;2662;51.194;6.614;2023-07-29T01:31:25;20.30;99.90
5278;DHT22;2662;51.194;6.614;2023-07-29T01:33:57;20.40;99.90
5278;DHT22;2662;51.194;6.614;2023-07-29T01:36:27;20.40;99.90
5278;DHT22;2662;51.194;6.614;2023-07-29T01:38:55;20.40;99.90
5278;DHT22;2662;51.194;6.614;2023-07-29T01:41:24;20.50;99.90
5278;DHT22;2662;51.194;6.614;2023-07-29T01:43:52;20.50;99.90
5278;DHT22;2662;51.194;6.614;2023-07-29T01:46:20;20.40;99.90
5278;DHT22;2662;51.194;6.614;2023-07-29T01:48:46;20.50;99.90
5278;DHT22;2662;51.194;6.614;2023-07-29T01:51:14;20.50;99.90
5278;DHT22;2662;51.194;6.614;2023-07-29T01:53:41;20.50;99.90
5278;DHT22;2662;51.194;6.614;2023-07-29T01:56:08;20.50;99.90
5278;DHT22;2662;51.194;6.614;2023-07-29T01:58:36;20.50;99.90
5278;DHT22;2662;51.194;6.614;2023-07-29T02:01:02;20.40;99.90
5278;DHT22;2662;51.194;6.614;2023-07-29T02:03:29;20.50;99.90
5278;DHT22;2662;51.194;6.614;2023-07-29T02:05:56;20.50;99.90
5278;DHT22;2662;51.194;6.614;2023-07-29T02:08:22;20.50;99.90
5278;DHT22;2662;51.194;6.614;2023-07-29T02:10:49;20.50;99.90
5278;DHT22;2662;51.194;6.614;2023-07-29T02:13:16;20.50;99.90
5278;DHT22;2662;51.194;6.614;2023-07-29T02:15:44;20.50;99.90
5278;DHT22;2662;51.194;6.614;2023-07-29T02:18:11;20.50;99.90
5278;DHT22;2662;51.194;6.614;2023-07-29T02:20:37;20.60;99.90
5278;DHT22;2662;51.194;6.614;2023-07-29T02:23:04;20.60;99.90
5278;DHT22;2662;51.194;6.614;2023-07-29T02:25:31;20.60;99.90
5278;DHT22;2662;51.194;6.614;2023-07-29T02:27:57;20.70;99.90
5278;DHT22;2662;51.194;6.614;2023-07-29T02:30:24;20.70;99.90
5278;DHT22;2662;51.194;6.614;2023-07-29T02:32:52;20.70;99.90
5278;DHT22;2662;51.194;6.614;2023-07-29T02:35:19;20.70;99.90
5278;DHT22;2662;51.194;6.614;2023-07-29T02:37:46;20.70;99.90
5278;DHT22;2662;51.194;6.614;2023-07-29T02:40:12;20.70;99.90
5278;DHT22;2662;51.194;6.614;2023-07-29T02:42:39;20.70;99.90
5278;DHT22;2662;51.194;6.614;2023-07-29T02:45:07;20.70;99.90
5278;DHT22;2662;51.194;6.614;2023-07-29T02:47:36;20.70;99.90
5278;DHT22;2662;51.194;6.614;2023-07-29T02:50:05;20.70;99.90
5278;DHT22;2662;51.194;6.614;2023-07-29T02:52:32;20.70;99.90
5278;DHT22;2662;51.194;6.614;2023-07-29T02:54:58;20.70;99.90
5278;DHT22;2662;51.194;6.614;2023-07-29T02:57:25;20.70;99.90
5278;DHT22;2662;51.194;6.614;2023-07-29T02:59:52;20.70;99.90
5278;DHT22;2662;51.194;6.614;2023-07-29T03:02:18;20.70;99.90
5278;DHT22;2662;51.194;6.614;2023-07-29T03:04:47;20.70;99.90
5278;DHT22;2662;51.194;6.614;2023-07-29T03:07:15;20.70;99.90
5278;DHT22;2662;51.194;6.614;2023-07-29T03:09:42;20.70;99.90
5278;DHT22;2662;51.194;6.614;2023-07-29T03:12:09;20.70;99.90
5278;DHT22;2662;51.194;6.614;2023-07-29T03:14:36;20.70;99.90
5278;DHT22;2662;51.194;6.614;2023-07-29T03:17:03;20.80;99.90
5278;DHT22;2662;51.194;6.614;2023-07-29T03:19:30;20.80;99.90
5278;DHT22;2662;51.194;6.614;2023-07-29T03:21:57;20.90;99.90
5278;DHT22;2662;51.194;6.614;2023-07-29T03:24:25;20.80;99.90
5278;DHT22;2662;51.194;6.614;2023-07-29T03:26:52;20.80;99.90
5278;DHT22;2662;51.194;6.614;2023-07-29T03:29:19;20.90;99.90
5278;DHT22;2662;51.194;6.614;2023-07-29T03:31:46;20.80;99.90
5278;DHT22;2662;51.194;6.614;2023-07-29T03:34:12;20.80;99.90
5278;DHT22;2662;51.194;6.614;2023-07-29T03:36:39;20.80;99.90
5278;DHT22;2662;51.194;6.614;2023-07-29T03:39:06;20.80;99.90
5278;DHT22;2662;51.194;6.614;2023-07-29T03:41:34;20.80;99.90
5278;DHT22;2662;51.194;6.614;2023-07-29T03:44:01;20.80;99.90
5278;DHT22;2662;51.194;6.614;2023-07-29T03:46:27;20.80;99.90
5278;DHT22;2662;51.194;6.614;2023-07-29T03:48:54;20.80;99.90
5278;DHT22;2662;51.194;6.614;2023-07-29T03:51:21;20.70;99.90
5278;DHT22;2662;51.194;6.614;2023-07-29T03:53:49;20.70;99.90
5278;DHT22;2662;51.194;6.614;2023-07-29T03:56:16;20.70;99.90
5278;DHT22;2662;51.194;6.614;2023-07-29T03:58:46;20.70;99.90
5278;DHT22;2662;51.194;6.614;2023-07-29T04:01:13;20.70;99.90
5278;DHT22;2662;51.194;6.614;2023-07-29T04:03:39;20.70;99.90
5278;DHT22;2662;51.194;6.614;2023-07-29T04:06:06;20.70;99.90
5278;DHT22;2662;51.194;6.614;2023-07-29T04:08:33;20.70;99.90
5278;DHT22;2662;51.194;6.614;2023-07-29T04:10:59;20.60;99.90
5278;DHT22;2662;51.194;6.614;2023-07-29T04:13:26;20.60;99.90
5278;DHT22;2662;51.194;6.614;2023-07-29T04:15:54;20.60;99.90
5278;DHT22;2662;51.194;6.614;2023-07-29T04:18:21;20.60;99.90
5278;DHT22;2662;51.194;6.614;2023-07-29T04:20:48;20.50;99.90
5278;DHT22;2662;51.194;6.614;2023-07-29T04:23:14;20.50;99.90
5278;DHT22;2662;51.194;6.614;2023-07-29T04:25:41;20.50;99.90
5278;DHT22;2662;51.194;6.614;2023-07-29T04:28:08;20.50;99.90
5278;DHT22;2662;51.194;6.614;2023-07-29T04:30:35;20.40;99.90
5278;DHT22;2662;51.194;6.614;2023-07-29T04:33:03;20.40;99.90
5278;DHT22;2662;51.194;6.614;2023-07-29T04:35:30;20.40;99.90
5278;DHT22;2662;51.194;6.614;2023-07-29T04:37:56;20.40;99.90
5278;DHT22;2662;51.194;6.614;2023-07-29T04:40:23;20.40;99.90
5278;DHT22;2662;51.194;6.614;2023-07-29T04:42:51;20.40;99.90
5278;DHT22;2662;51.194;6.614;2023-07-29T04:45:18;20.40;99.90
5278;DHT22;2662;51.194;6.614;2023-07-29T04:47:44;20.50;99.90
5278;DHT22;2662;51.194;6.614;2023-07-29T04:50:12;20.50;99.90
5278;DHT22;2662;51.194;6.614;2023-07-29T04:52:39;20.60;99.90
5278;DHT22;2662;51.194;6.614;2023-07-29T04:55:06;20.70;99.90
5278;DHT22;2662;51.194;6.614;2023-07-29T04:57:33;20.80;99.90
5278;DHT22;2662;51.194;6.614;2023-07-29T05:00:00;20.90;99.90
5278;DHT22;2662;51.194;6.614;2023-07-29T05:02:26;20.90;99.90
5278;DHT22;2662;51.194;6.614;2023-07-29T05:04:53;21.10;99.90
5278;DHT22;2662;51.194;6.614;2023-07-29T05:07:21;21.20;99.90
5278;DHT22;2662;51.194;6.614;2023-07-29T05:09:48;21.20;99.90
5278;DHT22;2662;51.194;6.614;2023-07-29T05:12:15;21.20;99.90
5278;DHT22;2662;51.194;6.614;2023-07-29T05:14:41;21.30;99.90
5278;DHT22;2662;51.194;6.614;2023-07-29T05:17:08;21.30;99.90
5278;DHT22;2662;51.194;6.614;2023-07-29T05:19:35;21.30;99.90
5278;DHT22;2662;51.194;6.614;2023-07-29T05:22:02;21.30;99.90
5278;DHT22;2662;51.194;6.614;2023-07-29T05:24:30;21.30;99.90
5278;DHT22;2662;51.194;6.614;2023-07-29T05:26:56;21.30;99.90
5278;DHT22;2662;51.194;6.614;2023-07-29T05:29:23;21.30;99.90
5278;DHT22;2662;51.194;6.614;2023-07-29T05:31:50;21.30;99.90
5278;DHT22;2662;51.194;6.614;2023-07-29T05:34:17;21.20;99.90
5278;DHT22;2662;51.194;6.614;2023-07-29T05:36:43;21.10;99.90
5278;DHT22;2662;51.194;6.614;2023-07-29T05:39:10;21.00;99.90
5278;DHT22;2662;51.194;6.614;2023-07-29T05:41:39;21.00;99.90
5278;DHT22;2662;51.194;6.614;2023-07-29T05:44:05;21.00;99.90
5278;DHT22;2662;51.194;6.614;2023-07-29T05:46:32;21.00;99.90
5278;DHT22;2662;51.194;6.614;2023-07-29T05:48:59;20.90;99.90
5278;DHT22;2662;51.194;6.614;2023-07-29T05:51:25;20.80;99.90
5278;DHT22;2662;51.194;6.614;2023-07-29T05:53:52;20.70;99.90
5278;DHT22;2662;51.194;6.614;2023-07-29T05:56:19;20.60;99.90
5278;DHT22;2662;51.194;6.614;2023-07-29T05:58:47;20.60;99.90
5278;DHT22;2662;51.194;6.614;2023-07-29T06:01:13;20.60;99.90
5278;DHT22;2662;51.194;6.614;2023-07-29T06:03:40;20.60;99.90
5278;DHT22;2662;51.194;6.614;2023-07-29T06:06:07;20.70;99.90
5278;DHT22;2662;51.194;6.614;2023-07-29T06:08:34;20.70;99.90
5278;DHT22;2662;51.194;6.614;2023-07-29T06:11:00;20.60;99.90
5278;DHT22;2662;51.194;6.614;2023-07-29T06:13:27;20.60;99.90
5278;DHT22;2662;51.194;6.614;2023-07-29T06:15:55;20.60;99.90
5278;DHT22;2662;51.194;6.614;2023-07-29T06:18:22;20.60;99.90
5278;DHT22;2662;51.194;6.614;2023-07-29T06:20:49;20.70;99.90
5278;DHT22;2662;51.194;6.614;2023-07-29T06:23:16;20.90;99.90
5278;DHT22;2662;51.194;6.614;2023-07-29T06:25:42;21.30;99.90
5278;DHT22;2662;51.194;6.614;2023-07-29T06:28:09;21.60;99.90
5278;DHT22;2662;51.194;6.614;2023-07-29T06:30:36;22.20;99.90
5278;DHT22;2662;51.194;6.614;2023-07-29T06:33:04;23.10;99.90
5278;DHT22;2662;51.194;6.614;2023-07-29T06:35:31;23.30;99.90
5278;DHT22;2662;51.194;6.614;2023-07-29T06:37:58;23.30;99.90
5278;DHT22;2662;51.194;6.614;2023-07-29T06:40:25;23.30;99.90
5278;DHT22;2662;51.194;6.614;2023-07-29T06:42:51;23.40;99.90
5278;DHT22;2662;51.194;6.614;2023-07-29T06:45:18;23.50;99.90
5278;DHT22;2662;51.194;6.614;2023-07-29T06:47:45;23.70;99.90
5278;DHT22;2662;51.194;6.614;2023-07-29T06:50:13;23.80;99.90
5278;DHT22;2662;51.194;6.614;2023-07-29T06:52:40;23.80;99.90
5278;DHT22;2662;51.194;6.614;2023-07-29T06:55:07;23.70;99.90
5278;DHT22;2662;51.194;6.614;2023-07-29T06:57:34;23.90;99.90
5278;DHT22;2662;51.194;6.614;2023-07-29T07:00:01;24.20;99.90
5278;DHT22;2662;51.194;6.614;2023-07-29T07:02:28;24.60;99.90
5278;DHT22;2662;51.194;6.614;2023-07-29T07:04:55;24.80;99.90
5278;DHT22;2662;51.194;6.614;2023-07-29T07:07:24;24.80;99.90
5278;DHT22;2662;51.194;6.614;2023-07-29T07:09:50;24.90;99.90
5278;DHT22;2662;51.194;6.614;2023-07-29T07:12:17;25.00;99.90
5278;DHT22;2662;51.194;6.614;2023-07-29T07:14:44;25.00;99.90
5278;DHT22;2662;51.194;6.614;2023-07-29T07:17:10;26.10;99.90
5278;DHT22;2662;51.194;6.614;2023-07-29T07:19:37;28.00;99.90
5278;DHT22;2662;51.194;6.614;2023-07-29T07:22:04;29.00;99.90
5278;DHT22;2662;51.194;6.614;2023-07-29T07:24:32;28.70;99.90
5278;DHT22;2662;51.194;6.614;2023-07-29T07:26:59;29.20;99.90
5278;DHT22;2662;51.194;6.614;2023-07-29T07:29:25;30.50;99.90
5278;DHT22;2662;51.194;6.614;2023-07-29T07:31:53;31.30;99.90
5278;DHT22;2662;51.194;6.614;2023-07-29T07:34:20;32.20;99.90
5278;DHT22;2662;51.194;6.614;2023-07-29T07:36:47;33.40;99.90
5278;DHT22;2662;51.194;6.614;2023-07-29T07:39:14;34.20;99.90
5278;DHT22;2662;51.194;6.614;2023-07-29T07:41:42;34.90;99.90
5278;DHT22;2662;51.194;6.614;2023-07-29T07:44:09;34.70;99.90
5278;DHT22;2662;51.194;6.614;2023-07-29T07:46:40;34.80;99.90
5278;DHT22;2662;51.194;6.614;2023-07-29T07:49:07;35.20;98.80
5278;DHT22;2662;51.194;6.614;2023-07-29T07:51:34;35.00;98.50
5278;DHT22;2662;51.194;6.614;2023-07-29T07:54:00;34.40;98.00
5278;DHT22;2662;51.194;6.614;2023-07-29T07:56:27;34.40;97.00
5278;DHT22;2662;51.194;6.614;2023-07-29T07:58:55;34.50;96.80
5278;DHT22;2662;51.194;6.614;2023-07-29T08:01:22;34.30;97.10
5278;DHT22;2662;51.194;6.614;2023-07-29T08:03:49;34.40;97.10
5278;DHT22;2662;51.194;6.614;2023-07-29T08:06:15;34.20;96.60
5278;DHT22;2662;51.194;6.614;2023-07-29T08:08:42;34.40;96.20
5278;DHT22;2662;51.194;6.614;2023-07-29T08:11:09;34.90;96.30
5278;DHT22;2662;51.194;6.614;2023-07-29T08:13:35;34.50;95.20
5278;DHT22;2662;51.194;6.614;2023-07-29T08:16:03;33.90;95.60
5278;DHT22;2662;51.194;6.614;2023-07-29T08:18:30;34.90;95.80
5278;DHT22;2662;51.194;6.614;2023-07-29T08:20:58;35.70;94.20
5278;DHT22;2662;51.194;6.614;2023-07-29T08:23:28;35.00;94.10
5278;DHT22;2662;51.194;6.614;2023-07-29T08:25:57;35.70;94.10
5278;DHT22;2662;51.194;6.614;2023-07-29T08:28:27;36.50;93.30
5278;DHT22;2662;51.194;6.614;2023-07-29T08:30:54;37.00;92.10
5278;DHT22;2662;51.194;6.614;2023-07-29T08:33:31;36.40;92.40
5278;DHT22;2662;51.194;6.614;2023-07-29T08:35:59;36.50;92.30
5278;DHT22;2662;51.194;6.614;2023-07-29T08:38:25;36.70;91.20
5278;DHT22;2662;51.194;6.614;2023-07-29T08:40:57;36.60;91.60
5278;DHT22;2662;51.194;6.614;2023-07-29T08:43:29;36.90;90.90
5278;DHT22;2662;51.194;6.614;2023-07-29T08:45:58;37.50;90.00
5278;DHT22;2662;51.194;6.614;2023-07-29T08:48:32;36.50;90.40
5278;DHT22;2662;51.194;6.614;2023-07-29T08:51:00;36.30;90.40
5278;DHT22;2662;51.194;6.614;2023-07-29T08:53:27;34.90;90.50
5278;DHT22;2662;51.194;6.614;2023-07-29T08:55:55;33.40;92.10
5278;DHT22;2662;51.194;6.614;2023-07-29T08:58:22;31.80;94.40
5278;DHT22;2662;51.194;6.614;2023-07-29T09:00:50;30.40;96.70
5278;DHT22;2662;51.194;6.614;2023-07-29T09:03:17;29.20;99.90
5278;DHT22;2662;51.194;6.614;2023-07-29T09:05:45;28.90;99.90
5278;DHT22;2662;51.194;6.614;2023-07-29T09:08:13;28.40;99.90
5278;DHT22;2662;51.194;6.614;2023-07-29T09:10:39;28.20;99.90
5278;DHT22;2662;51.194;6.614;2023-07-29T09:13:06;28.00;99.90
5278;DHT22;2662;51.194;6.614;2023-07-29T09:15:33;27.70;99.90
5278;DHT22;2662;51.194;6.614;2023-07-29T09:18:09;27.00;99.90
5278;DHT22;2662;51.194;6.614;2023-07-29T09:20:36;26.30;99.90
5278;DHT22;2662;51.194;6.614;2023-07-29T09:23:07;26.00;99.90
5278;DHT22;2662;51.194;6.614;2023-07-29T09:25:35;25.90;99.90
5278;DHT22;2662;51.194;6.614;2023-07-29T09:28:07;25.90;99.90
5278;DHT22;2662;51.194;6.614;2023-07-29T09:30:34;25.90;99.90
5278;DHT22;2662;51.194;6.614;2023-07-29T09:33:00;26.00;99.90
5278;DHT22;2662;51.194;6.614;2023-07-29T09:35:29;25.80;99.90
5278;DHT22;2662;51.194;6.614;2023-07-29T09:37:56;25.70;99.90
5278;DHT22;2662;51.194;6.614;2023-07-29T09:40:25;25.70;99.90
5278;DHT22;2662;51.194;6.614;2023-07-29T09:42:52;25.90;99.90
5278;DHT22;2662;51.194;6.614;2023-07-29T09:45:21;26.00;99.90
5278;DHT22;2662;51.194;6.614;2023-07-29T09:47:49;26.90;99.90
5278;DHT22;2662;51.194;6.614;2023-07-29T09:50:16;28.30;99.90
5278;DHT22;2662;51.194;6.614;2023-07-29T09:52:44;28.50;99.90
5278;DHT22;2662;51.194;6.614;2023-07-29T09:55:12;28.30;99.90
5278;DHT22;2662;51.194;6.614;2023-07-29T09:57:41;28.00;99.90
5278;DHT22;2662;51.194;6.614;2023-07-29T10:00:11;27.80;99.90
5278;DHT22;2662;51.194;6.614;2023-07-29T10:02:39;28.50;99.90
5278;DHT22;2662;51.194;6.614;2023-07-29T10:05:07;29.70;99.90
5278;DHT22;2662;51.194;6.614;2023-07-29T10:07:35;29.80;99.90
5278;DHT22;2662;51.194;6.614;2023-07-29T10:10:04;29.80;99.90
5278;DHT22;2662;51.194;6.614;2023-07-29T10:12:31;29.60;99.90
5278;DHT22;2662;51.194;6.614;2023-07-29T10:15:02;28.80;99.90
5278;DHT22;2662;51.194;6.614;2023-07-29T10:17:29;28.30;99.90
5278;DHT22;2662;51.194;6.614;2023-07-29T10:19:57;28.30;99.90
5278;DHT22;2662;51.194;6.614;2023-07-29T10:22:25;28.10;99.90
5278;DHT22;2662;51.194;6.614;2023-07-29T10:24:54;28.90;99.90
5278;DHT22;2662;51.194;6.614;2023-07-29T10:27:24;29.90;99.90
5278;DHT22;2662;51.194;6.614;2023-07-29T10:29:53;30.30;99.90
5278;DHT22;2662;51.194;6.614;2023-07-29T10:32:25;30.90;99.90
5278;DHT22;2662;51.194;6.614;2023-07-29T10:34:52;31.50;99.90
5278;DHT22;2662;51.194;6.614;2023-07-29T10:37:19;31.90;99.90
5278;DHT22;2662;51.194;6.614;2023-07-29T10:39:54;31.10;99.90
5278;DHT22;2662;51.194;6.614;2023-07-29T10:42:21;30.20;99.90
5278;DHT22;2662;51.194;6.614;2023-07-29T10:44:49;30.00;99.90
5278;DHT22;2662;51.194;6.614;2023-07-29T10:47:18;30.00;99.90
5278;DHT22;2662;51.194;6.614;2023-07-29T10:49:48;30.30;99.90
5278;DHT22;2662;51.194;6.614;2023-07-29T10:52:16;30.90;99.90
5278;DHT22;2662;51.194;6.614;2023-07-29T10:54:44;31.00;99.90
5278;DHT22;2662;51.194;6.614;2023-07-29T10:57:14;30.50;99.90
5278;DHT22;2662;51.194;6.614;2023-07-29T10:59:41;29.80;99.90
5278;DHT22;2662;51.194;6.614;2023-07-29T11:02:19;29.50;99.90
5278;DHT22;2662;51.194;6.614;2023-07-29T11:04:49;29.20;99.90
5278;DHT22;2662;51.194;6.614;2023-07-29T11:07:26;28.80;99.90
5278;DHT22;2662;51.194;6.614;2023-07-29T11:10:01;28.60;99.90
5278;DHT22;2662;51.194;6.614;2023-07-29T11:12:36;28.00;99.90
5278;DHT22;2662;51.194;6.614;2023-07-29T11:15:03;27.50;99.90
5278;DHT22;2662;51.194;6.614;2023-07-29T11:17:32;27.00;99.90
5278;DHT22;2662;51.194;6.614;2023-07-29T11:20:01;26.80;99.90
5278;DHT22;2662;51.194;6.614;2023-07-29T11:22:29;26.70;99.90
5278;DHT22;2662;51.194;6.614;2023-07-29T11:24:56;26.70;99.90
5278;DHT22;2662;51.194;6.614;2023-07-29T11:27:23;26.50;99.90
5278;DHT22;2662;51.194;6.614;2023-07-29T11:29:49;26.50;99.90
5278;DHT22;2662;51.194;6.614;2023-07-29T11:32:16;26.10;99.90
5278;DHT22;2662;51.194;6.614;2023-07-29T11:34:43;26.00;99.90
5278;DHT22;2662;51.194;6.614;2023-07-29T11:37:11;25.80;99.90
5278;DHT22;2662;51.194;6.614;2023-07-29T11:39:39;25.60;99.90
5278;DHT22;2662;51.194;6.614;2023-07-29T11:42:06;25.50;99.90
5278;DHT22;2662;51.194;6.614;2023-07-29T11:44:33;26.10;99.90
5278;DHT22;2662;51.194;6.614;2023-07-29T11:47:00;26.80;99.90
5278;DHT22;2662;51.194;6.614;2023-07-29T11:49:27;27.40;99.90
5278;DHT22;2662;51.194;6.614;2023-07-29T11:51:53;27.70;99.90
5278;DHT22;2662;51.194;6.614;2023-07-29T11:54:21;28.10;99.90
5278;DHT22;2662;51.194;6.614;2023-07-29T11:56:49;28.30;99.90
5278;DHT22;2662;51.194;6.614;2023-07-29T11:59:16;28.40;99.90
5278;DHT22;2662;51.194;6.614;2023-07-29T12:01:43;28.30;99.90
5278;DHT22;2662;51.194;6.614;2023-07-29T12:04:11;28.30;99.90
5278;DHT22;2662;51.194;6.614;2023-07-29T12:06:39;28.30;99.90
5278;DHT22;2662;51.194;6.614;2023-07-29T12:09:06;28.30;99.90
5278;DHT22;2662;51.194;6.614;2023-07-29T12:11:36;28.20;99.90
5278;DHT22;2662;51.194;6.614;2023-07-29T12:14:02;28.10;99.90
5278;DHT22;2662;51.194;6.614;2023-07-29T12:16:29;28.00;99.90
5278;DHT22;2662;51.194;6.614;2023-07-29T12:19:00;27.90;99.90
5278;DHT22;2662;51.194;6.614;2023-07-29T12:21:27;27.80;99.90
5278;DHT22;2662;51.194;6.614;2023-07-29T12:23:55;28.20;99.90
5278;DHT22;2662;51.194;6.614;2023-07-29T12:26:27;28.30;99.90
5278;DHT22;2662;51.194;6.614;2023-07-29T12:28:55;28.10;99.90
5278;DHT22;2662;51.194;6.614;2023-07-29T12:31:31;28.00;99.90
5278;DHT22;2662;51.194;6.614;2023-07-29T12:33:58;27.80;99.90
5278;DHT22;2662;51.194;6.614;2023-07-29T12:36:28;27.80;99.90
5278;DHT22;2662;51.194;6.614;2023-07-29T12:39:06;28.00;99.90
5278;DHT22;2662;51.194;6.614;2023-07-29T12:41:41;27.80;99.90
5278;DHT22;2662;51.194;6.614;2023-07-29T12:44:09;27.50;99.90
5278;DHT22;2662;51.194;6.614;2023-07-29T12:46:36;27.30;99.90
5278;DHT22;2662;51.194;6.614;2023-07-29T12:49:03;27.20;99.90
5278;DHT22;2662;51.194;6.614;2023-07-29T12:51:30;27.30;99.90
5278;DHT22;2662;51.194;6.614;2023-07-29T12:53:56;27.70;99.90
5278;DHT22;2662;51.194;6.614;2023-07-29T12:56:23;27.80;99.90
5278;DHT22;2662;51.194;6.614;2023-07-29T12:58:50;27.90;99.90
5278;DHT22;2662;51.194;6.614;2023-07-29T13:01:18;28.10;99.90
5278;DHT22;2662;51.194;6.614;2023-07-29T13:03:45;27.90;99.90
5278;DHT22;2662;51.194;6.614;2023-07-29T13:06:12;27.90;99.90
5278;DHT22;2662;51.194;6.614;2023-07-29T13:08:38;27.60;99.90
5278;DHT22;2662;51.194;6.614;2023-07-29T13:11:05;27.40;99.90
5278;DHT22;2662;51.194;6.614;2023-07-29T13:13:32;27.30;99.90
5278;DHT22;2662;51.194;6.614;2023-07-29T13:15:59;27.10;99.90
5278;DHT22;2662;51.194;6.614;2023-07-29T13:18:28;26.90;99.90
5278;DHT22;2662;51.194;6.614;2023-07-29T13:20:54;26.90;99.90
5278;DHT22;2662;51.194;6.614;2023-07-29T13:23:21;26.70;99.90
5278;DHT22;2662;51.194;6.614;2023-07-29T13:25:48;26.40;99.90
5278;DHT22;2662;51.194;6.614;2023-07-29T13:28:16;26.20;99.90
5278;DHT22;2662;51.194;6.614;2023-07-29T13:30:42;25.80;99.90
5278;DHT22;2662;51.194;6.614;2023-07-29T13:33:09;25.60;99.90
5278;DHT22;2662;51.194;6.614;2023-07-29T13:35:37;25.50;99.90
5278;DHT22;2662;51.194;6.614;2023-07-29T13:38:04;25.50;99.90
5278;DHT22;2662;51.194;6.614;2023-07-29T13:40:31;25.50;99.90
5278;DHT22;2662;51.194;6.614;2023-07-29T13:42:58;25.70;99.90
5278;DHT22;2662;51.194;6.614;2023-07-29T13:45:25;25.90;99.90
5278;DHT22;2662;51.194;6.614;2023-07-29T13:47:52;25.80;99.90
5278;DHT22;2662;51.194;6.614;2023-07-29T13:50:18;26.00;99.90
5278;DHT22;2662;51.194;6.614;2023-07-29T13:52:46;26.00;99.90
5278;DHT22;2662;51.194;6.614;2023-07-29T13:55:13;25.80;99.90
5278;DHT22;2662;51.194;6.614;2023-07-29T13:57:40;25.50;99.90
5278;DHT22;2662;51.194;6.614;2023-07-29T14:00:07;24.90;99.90
5278;DHT22;2662;51.194;6.614;2023-07-29T14:02:34;24.50;99.90
5278;DHT22;2662;51.194;6.614;2023-07-29T14:05:01;24.50;99.90
5278;DHT22;2662;51.194;6.614;2023-07-29T14:07:28;24.60;99.90
5278;DHT22;2662;51.194;6.614;2023-07-29T14:09:56;24.80;99.90
5278;DHT22;2662;51.194;6.614;2023-07-29T14:12:22;25.00;99.90
5278;DHT22;2662;51.194;6.614;2023-07-29T14:14:49;25.10;99.90
5278;DHT22;2662;51.194;6.614;2023-07-29T14:17:16;25.50;99.90
5278;DHT22;2662;51.194;6.614;2023-07-29T14:19:43;25.60;99.90
5278;DHT22;2662;51.194;6.614;2023-07-29T14:22:09;25.80;99.90
5278;DHT22;2662;51.194;6.614;2023-07-29T14:24:36;25.70;99.90
5278;DHT22;2662;51.194;6.614;2023-07-29T14:27:05;25.70;99.90
5278;DHT22;2662;51.194;6.614;2023-07-29T14:29:31;25.70;99.90
5278;DHT22;2662;51.194;6.614;2023-07-29T14:31:58;25.50;99.90
5278;DHT22;2662;51.194;6.614;2023-07-29T14:34:25;25.40;99.90
5278;DHT22;2662;51.194;6.614;2023-07-29T14:36:52;25.30;99.90
5278;DHT22;2662;51.194;6.614;2023-07-29T14:39:18;25.10;99.90
5278;DHT22;2662;51.194;6.614;2023-07-29T14:41:45;25.10;99.90
5278;DHT22;2662;51.194;6.614;2023-07-29T14:44:13;25.10;99.90
5278;DHT22;2662;51.194;6.614;2023-07-29T14:46:40;25.20;99.90
5278;DHT22;2662;51.194;6.614;2023-07-29T14:49:06;25.60;99.90
5278;DHT22;2662;51.194;6.614;2023-07-29T14:51:34;26.00;99.90
5278;DHT22;2662;51.194;6.614;2023-07-29T14:54:01;26.20;99.90
5278;DHT22;2662;51.194;6.614;2023-07-29T14:56:27;26.50;99.90
5278;DHT22;2662;51.194;6.614;2023-07-29T14:58:54;26.70;99.90
5278;DHT22;2662;51.194;6.614;2023-07-29T15:01:22;26.80;99.90
5278;DHT22;2662;51.194;6.614;2023-07-29T15:03:49;27.00;99.90
5278;DHT22;2662;51.194;6.614;2023-07-29T15:06:15;27.30;99.90
5278;DHT22;2662;51.194;6.614;2023-07-29T15:08:42;27.40;99.90
5278;DHT22;2662;51.194;6.614;2023-07-29T15:11:09;27.10;99.90
5278;DHT22;2662;51.194;6.614;2023-07-29T15:13:36;27.00;99.90
5278;DHT22;2662;51.194;6.614;2023-07-29T15:16:02;26.90;99.90
5278;DHT22;2662;51.194;6.614;2023-07-29T15:18:31;26.90;99.90
5278;DHT22;2662;51.194;6.614;2023-07-29T15:20:59;27.00;99.90
5278;DHT22;2662;51.194;6.614;2023-07-29T15:23:27;27.10;99.90
5278;DHT22;2662;51.194;6.614;2023-07-29T15:25:54;27.10;99.90
5278;DHT22;2662;51.194;6.614;2023-07-29T15:28:21;27.10;99.90
5278;DHT22;2662;51.194;6.614;2023-07-29T15:30:48;27.10;99.90
5278;DHT22;2662;51.194;6.614;2023-07-29T15:33:15;27.00;99.90
5278;DHT22;2662;51.194;6.614;2023-07-29T15:35:43;27.00;99.90
5278;DHT22;2662;51.194;6.614;2023-07-29T15:38:09;27.10;99.90
5278;DHT22;2662;51.194;6.614;2023-07-29T15:40:38;27.00;99.90
5278;DHT22;2662;51.194;6.614;2023-07-29T15:43:04;26.90;99.90
5278;DHT22;2662;51.194;6.614;2023-07-29T15:45:31;26.90;99.90
5278;DHT22;2662;51.194;6.614;2023-07-29T15:47:58;26.80;99.90
5278;DHT22;2662;51.194;6.614;2023-07-29T15:50:25;26.70;99.90
5278;DHT22;2662;51.194;6.614;2023-07-29T15:52:53;26.50;99.90
5278;DHT22;2662;51.194;6.614;2023-07-29T15:55:20;26.40;99.90
5278;DHT22;2662;51.194;6.614;2023-07-29T15:57:46;26.40;99.90
5278;DHT22;2662;51.194;6.614;2023-07-29T16:00:13;26.40;99.90
5278;DHT22;2662;51.194;6.614;2023-07-29T16:02:40;26.40;99.90
5278;DHT22;2662;51.194;6.614;2023-07-29T16:05:07;26.30;99.90